Time;durP1;ratioP1;P1;durP2;ratioP2;P2;SDS_P1;SDS_P2;PMS_P1;PMS_P2;Temp;Humidity;BMP_temperature;BMP_pressure;BME280_temperature;BME280_humidity;BME280_pressure;Samples;Min_cycle;Max_cycle;Signal;HPM_P1;HPM_P2
2023/07/29 00:00:19;;;;;;;0.25;0.25;;;;;;;22.74;60.42;99267.31;4472932;31;20172;-94
2023/07/29 00:02:45;;;;;;;0.10;0.10;;;;;;;22.70;60.41;99265.91;4460216;32;20232;-94
2023/07/29 00:05:11;;;;;;;0.00;0.00;;;;;;;22.72;60.41;99273.75;4457489;32;20081;-95
2023/07/29 00:07:36;;;;;;;0.10;0.10;;;;;;;22.63;60.41;99270.09;4458717;32;20136;-95
2023/07/29 00:10:03;;;;;;;0.43;0.43;;;;;;;22.55;60.40;99278.72;4472615;32;20433;-95
2023/07/29 00:12:28;;;;;;;0.03;0.03;;;;;;;22.71;60.41;99269.37;4457370;32;20084;-95
2023/07/29 00:14:54;;;;;;;0.03;0.03;;;;;;;22.56;60.40;99267.16;4450625;32;20169;-94
2023/07/29 00:17:20;;;;;;;0.00;0.00;;;;;;;22.51;60.41;99271.19;4458560;32;20085;-94
2023/07/29 00:19:45;;;;;;;0.20;0.20;;;;;;;22.29;60.40;99266.94;4459527;32;20499;-95
2023/07/29 00:22:11;;;;;;;0.00;0.00;;;;;;;22.38;60.40;99260.81;4457744;32;20152;-94
2023/07/29 00:24:36;;;;;;;0.10;0.10;;;;;;;22.17;60.38;99268.84;4453757;32;20119;-95
2023/07/29 00:27:02;;;;;;;0.28;0.28;;;;;;;22.44;60.40;99264.72;4472731;32;20117;-93
2023/07/29 00:29:27;;;;;;;0.52;0.52;;;;;;;22.15;60.38;99269.97;4457313;32;20139;-94
2023/07/29 00:31:53;;;;;;;0.00;0.00;;;;;;;22.18;60.38;99256.44;4457158;32;20120;-95
2023/07/29 00:34:19;;;;;;;0.00;0.00;;;;;;;22.19;60.39;99261.59;4462834;32;20093;-93
2023/07/29 00:36:45;;;;;;;0.00;0.00;;;;;;;22.04;60.38;99262.94;4458513;32;20088;-93
2023/07/29 00:39:10;;;;;;;0.00;0.00;;;;;;;21.92;60.37;99270.09;4468826;32;20150;-93
2023/07/29 00:41:36;;;;;;;0.00;0.00;;;;;;;21.94;60.38;99265.50;4470731;32;20441;-93
2023/07/29 00:44:01;;;;;;;0.10;0.10;;;;;;;21.91;60.38;99267.59;4458621;32;20699;-93
2023/07/29 00:46:28;;;;;;;0.00;0.00;;;;;;;22.00;60.37;99261.47;4455800;32;20128;-93
2023/07/29 00:48:53;;;;;;;0.10;0.10;;;;;;;21.82;60.37;99268.41;4449002;32;20131;-93
2023/07/29 00:51:19;;;;;;;0.00;0.00;;;;;;;21.72;60.37;99265.69;4442996;32;20144;-93
2023/07/29 00:53:44;;;;;;;0.00;0.00;;;;;;;21.85;60.37;99262.84;4450006;32;20577;-93
2023/07/29 00:56:09;;;;;;;0.20;0.20;;;;;;;21.64;60.36;99250.44;4459605;32;31836;-94
2023/07/29 00:58:35;;;;;;;0.20;0.20;;;;;;;21.68;60.36;99261.63;4465152;32;21774;-94
2023/07/29 01:01:00;;;;;;;0.00;0.00;;;;;;;21.61;60.35;99256.03;4458609;32;20148;-95
2023/07/29 01:03:26;;;;;;;0.00;0.00;;;;;;;21.55;60.35;99251.25;4471162;32;20117;-95
2023/07/29 01:06:19;;;;;;;0.00;0.00;;;;;;;21.56;60.36;99249.44;4458600;32;20088;-94
2023/07/29 01:08:50;;;;;;;3.10;1.08;;;;;;;21.44;60.35;99253.97;4474589;32;20112;-96
2023/07/29 01:11:30;;;;;;;0.10;0.10;;;;;;;21.38;60.35;99257.97;4460881;32;20092;-96
2023/07/29 01:14:03;;;;;;;0.45;0.43;;;;;;;21.31;60.33;99253.31;4460165;32;20153;-96
2023/07/29 01:16:40;;;;;;;0.03;0.03;;;;;;;21.49;60.35;99249.09;4473395;32;20127;-95
2023/07/29 01:19:08;;;;;;;0.00;0.00;;;;;;;21.44;60.35;99249.50;4476584;32;20101;-93
2023/07/29 01:21:35;;;;;;;0.10;0.10;;;;;;;21.32;60.34;99249.72;4459366;32;20762;-92
2023/07/29 01:24:00;;;;;;;0.03;0.03;;;;;;;21.07;60.33;99258.84;4445880;32;20096;-94
2023/07/29 01:26:28;;;;;;;0.00;0.00;;;;;;;21.21;60.34;99262.97;4445897;32;20111;-93
2023/07/29 01:28:53;;;;;;;0.00;0.00;;;;;;;21.12;60.34;99260.13;4474315;31;20135;-92
2023/07/29 01:31:40;;;;;;;0.00;0.00;;;;;;;21.49;60.36;99250.91;4460924;32;20132;-93
2023/07/29 01:34:39;;;;;;;0.20;0.20;;;;;;;21.59;60.36;99251.81;4453621;32;20157;-93
2023/07/29 01:37:05;;;;;;;0.20;0.20;;;;;;;21.35;60.34;99254.75;4475550;32;20088;-94
2023/07/29 01:39:30;;;;;;;0.05;0.05;;;;;;;21.24;60.33;99257.44;4458390;32;20187;-93
2023/07/29 01:41:56;;;;;;;0.05;0.05;;;;;;;21.14;60.33;99263.47;4451215;32;20484;-94
2023/07/29 01:44:21;;;;;;;10.52;0.88;;;;;;;21.35;60.34;99262.69;4458995;32;20100;-93
2023/07/29 01:46:47;;;;;;;0.10;0.10;;;;;;;21.31;60.34;99264.75;4460611;32;20123;-93
2023/07/29 01:49:12;;;;;;;0.00;0.00;;;;;;;21.07;60.32;99266.78;4460743;32;20850;-93
2023/07/29 01:51:37;;;;;;;0.00;0.00;;;;;;;20.89;60.32;99263.84;4457890;32;20135;-94
2023/07/29 01:54:04;;;;;;;0.20;0.20;;;;;;;21.01;60.33;99256.69;4470705;32;20107;-91
2023/07/29 01:56:29;;;;;;;0.13;0.13;;;;;;;20.93;60.31;99267.06;4469830;32;20196;-92
2023/07/29 01:58:55;;;;;;;5.37;0.98;;;;;;;20.70;60.31;99261.84;4470241;32;20124;-93
2023/07/29 02:01:20;;;;;;;0.52;0.20;;;;;;;20.78;60.30;99258.56;4458761;32;20149;-93
2023/07/29 02:03:46;;;;;;;0.00;0.00;;;;;;;20.80;60.32;99262.75;4457748;32;20112;-92
2023/07/29 02:06:11;;;;;;;0.00;0.00;;;;;;;20.80;60.31;99262.75;4447384;32;20139;-90
2023/07/29 02:08:40;;;;;;;0.00;0.00;;;;;;;20.79;60.32;99266.38;4458576;32;20201;-94
2023/07/29 02:11:06;;;;;;;0.20;0.20;;;;;;;20.60;60.30;99260.09;4463475;32;20068;-93
2023/07/29 02:13:31;;;;;;;0.00;0.00;;;;;;;20.53;60.30;99262.37;4459210;32;20110;-94
2023/07/29 02:15:57;;;;;;;0.00;0.00;;;;;;;20.70;60.30;99258.38;4476281;32;20957;-94
2023/07/29 02:18:22;;;;;;;0.05;0.05;;;;;;;20.48;60.30;99252.16;4462818;32;20127;-94
2023/07/29 02:20:49;;;;;;;0.00;0.00;;;;;;;20.55;60.31;99252.50;4459335;32;20144;-93
2023/07/29 02:23:16;;;;;;;0.20;0.20;;;;;;;20.64;60.30;99259.72;4458178;32;20088;-91
2023/07/29 02:25:41;;;;;;;5.00;2.00;;;;;;;20.68;60.30;99255.84;4457633;32;20430;-92
2023/07/29 02:28:07;;;;;;;0.00;0.00;;;;;;;20.81;60.31;99259.16;4451698;32;20136;-92
2023/07/29 02:30:32;;;;;;;0.10;0.10;;;;;;;20.72;60.31;99264.38;4459456;32;20156;-93
2023/07/29 02:32:59;;;;;;;0.00;0.00;;;;;;;20.78;60.31;99261.22;4455113;32;20122;-92
2023/07/29 02:35:25;;;;;;;0.00;0.00;;;;;;;20.64;60.30;99264.16;4457829;32;20161;-92
2023/07/29 02:37:50;;;;;;;0.15;0.15;;;;;;;20.59;60.30;99259.25;4467784;32;20112;-93
2023/07/29 02:40:16;;;;;;;0.25;0.15;;;;;;;20.56;60.31;99267.41;4449976;32;20123;-92
2023/07/29 02:42:41;;;;;;;0.08;0.08;;;;;;;20.57;60.30;99261.16;4457119;32;20092;-92
2023/07/29 02:45:09;;;;;;;0.00;0.00;;;;;;;20.70;60.30;99263.66;4459839;32;20143;-93
2023/07/29 02:47:35;;;;;;;0.45;0.25;;;;;;;20.50;60.29;99263.47;4461947;32;20123;-92
2023/07/29 02:50:01;;;;;;;0.10;0.10;;;;;;;20.42;60.29;99267.69;4460532;32;20160;-92
2023/07/29 02:52:26;;;;;;;3.15;0.88;;;;;;;20.37;60.29;99269.84;4457279;32;20105;-91
2023/07/29 02:54:51;;;;;;;0.15;0.10;;;;;;;20.42;60.30;99276.47;4472426;32;20198;-92
2023/07/29 02:57:17;;;;;;;0.10;0.10;;;;;;;20.28;60.29;99279.31;4459385;32;20172;-92
2023/07/29 02:59:42;;;;;;;0.15;0.15;;;;;;;20.51;60.29;99269.59;4470146;32;20139;-93
2023/07/29 03:02:08;;;;;;;0.00;0.00;;;;;;;20.52;60.29;99277.37;4468142;32;20100;-92
2023/07/29 03:04:33;;;;;;;0.00;0.00;;;;;;;20.50;60.29;99276.69;4472512;32;20138;-92
2023/07/29 03:06:59;;;;;;;0.20;0.17;;;;;;;20.16;60.28;99270.56;4459733;32;20354;-92
2023/07/29 03:09:25;;;;;;;0.10;0.10;;;;;;;20.37;60.29;99275.97;4472882;32;20101;-92
2023/07/29 03:11:52;;;;;;;0.28;0.17;;;;;;;20.31;60.28;99284.34;4472546;32;20076;-92
2023/07/29 03:14:18;;;;;;;0.20;0.20;;;;;;;20.19;60.28;99272.13;4459380;32;20114;-93
2023/07/29 03:16:43;;;;;;;0.25;0.25;;;;;;;20.13;60.28;99275.28;4489218;31;20385;-92
2023/07/29 03:19:09;;;;;;;0.70;0.52;;;;;;;20.08;60.27;99275.59;4460236;32;20140;-91
2023/07/29 03:21:34;;;;;;;0.00;0.00;;;;;;;20.06;60.27;99279.34;4456998;32;20119;-92
2023/07/29 03:24:00;;;;;;;0.25;0.25;;;;;;;20.07;60.27;99281.00;4476659;32;20139;-92
2023/07/29 03:26:25;;;;;;;0.00;0.00;;;;;;;19.87;60.26;99279.91;4465193;32;20124;-91
2023/07/29 03:28:51;;;;;;;0.00;0.00;;;;;;;20.10;60.28;99276.31;4459670;32;20093;-92
2023/07/29 03:31:16;;;;;;;1.60;0.85;;;;;;;20.03;60.27;99282.22;4453467;32;20112;-92
2023/07/29 03:33:42;;;;;;;2.12;0.80;;;;;;;19.94;60.27;99281.16;4456824;32;20115;-92
2023/07/29 03:36:07;;;;;;;0.00;0.00;;;;;;;20.11;60.28;99274.53;4454783;32;20143;-92
2023/07/29 03:38:35;;;;;;;0.43;0.10;;;;;;;19.96;60.27;99271.31;4456991;32;20117;-92
2023/07/29 03:41:02;;;;;;;0.00;0.00;;;;;;;19.98;60.27;99279.09;4458106;32;20151;-92
2023/07/29 03:43:27;;;;;;;0.05;0.05;;;;;;;20.29;60.28;99274.88;4461797;32;20111;-94
2023/07/29 03:45:53;;;;;;;0.00;0.00;;;;;;;20.09;60.27;99279.94;4481607;32;20088;-93
2023/07/29 03:48:18;;;;;;;0.00;0.00;;;;;;;20.39;60.28;99286.41;4462085;32;20100;-92
2023/07/29 03:50:44;;;;;;;0.17;0.17;;;;;;;20.29;60.28;99285.44;4456346;32;20104;-93
2023/07/29 03:53:09;;;;;;;0.00;0.00;;;;;;;20.62;60.30;99281.97;4466410;32;20136;-92
2023/07/29 03:55:35;;;;;;;0.03;0.03;;;;;;;20.53;60.29;99294.09;4459273;32;20184;-91
2023/07/29 03:58:00;;;;;;;0.75;0.65;;;;;;;20.62;60.30;99289.88;4471673;32;20096;-92
2023/07/29 04:00:26;;;;;;;0.10;0.10;;;;;;;20.52;60.29;99285.31;4450242;32;20400;-94
2023/07/29 04:02:52;;;;;;;1.08;0.43;;;;;;;20.57;60.30;99281.47;4462995;32;20145;-93
2023/07/29 04:05:17;;;;;;;0.00;0.00;;;;;;;20.51;60.29;99282.81;4449351;32;20149;-93
2023/07/29 04:07:43;;;;;;;0.00;0.00;;;;;;;20.50;60.29;99271.38;4449343;32;20161;-94
2023/07/29 04:10:08;;;;;;;0.68;0.50;;;;;;;20.74;60.31;99275.66;4457246;32;20128;-93
2023/07/29 04:12:34;;;;;;;0.00;0.00;;;;;;;20.94;60.32;99277.50;4471279;32;20421;-94
2023/07/29 04:14:59;;;;;;;0.10;0.10;;;;;;;21.00;60.32;99284.09;4472464;32;20118;-94
2023/07/29 04:17:24;;;;;;;0.08;0.08;;;;;;;21.20;60.33;99288.59;4458920;32;20100;-93
2023/07/29 04:19:50;;;;;;;0.00;0.00;;;;;;;21.21;60.33;99287.63;4457693;32;24436;-93
2023/07/29 04:22:15;;;;;;;0.00;0.00;;;;;;;21.31;60.33;99280.66;4456379;32;20116;-93
2023/07/29 04:24:41;;;;;;;0.00;0.00;;;;;;;21.18;60.33;99290.53;4464319;32;20104;-94
2023/07/29 04:27:06;;;;;;;0.20;0.20;;;;;;;21.23;60.33;99283.03;4447075;32;20113;-94
2023/07/29 04:29:32;;;;;;;0.62;0.15;;;;;;;21.21;60.33;99284.97;4474987;32;20145;-94
2023/07/29 04:31:57;;;;;;;0.10;0.10;;;;;;;21.17;60.32;99278.25;4457172;32;20400;-91
2023/07/29 04:34:23;;;;;;;0.00;0.00;;;;;;;21.29;60.33;99279.06;4453446;32;20092;-92
2023/07/29 04:36:48;;;;;;;0.00;0.00;;;;;;;21.49;60.35;99278.22;4462250;32;20384;-94
2023/07/29 04:39:14;;;;;;;0.03;0.03;;;;;;;21.54;60.34;99275.22;4461806;32;20113;-94
2023/07/29 04:41:39;;;;;;;0.00;0.00;;;;;;;21.54;60.34;99277.87;4469456;32;20429;-94
2023/07/29 04:44:05;;;;;;;0.10;0.10;;;;;;;21.64;60.36;99282.25;4457561;32;20145;-94
2023/07/29 04:46:30;;;;;;;0.20;0.10;;;;;;;21.81;60.37;99277.31;4447908;32;20108;-93
2023/07/29 04:48:56;;;;;;;0.20;0.20;;;;;;;21.75;60.36;99279.50;4459726;32;20089;-93
2023/07/29 04:51:21;;;;;;;0.95;0.65;;;;;;;21.69;60.35;99274.72;4456805;32;20146;-93
2023/07/29 04:53:47;;;;;;;0.00;0.00;;;;;;;21.95;60.36;99271.66;4456682;32;20097;-94
2023/07/29 04:56:12;;;;;;;0.00;0.00;;;;;;;22.22;60.39;99269.28;4459167;32;20437;-94
2023/07/29 04:58:38;;;;;;;0.08;0.08;;;;;;;22.39;60.39;99264.31;4456788;32;20398;-94
2023/07/29 05:01:03;;;;;;;0.00;0.00;;;;;;;22.59;60.41;99266.03;4456867;32;20121;-94
2023/07/29 05:03:29;;;;;;;0.00;0.00;;;;;;;22.84;60.42;99259.38;4471241;32;20131;-94
2023/07/29 05:05:55;;;;;;;0.35;0.35;;;;;;;23.08;60.43;99261.63;4472907;32;20197;-93
2023/07/29 05:08:21;;;;;;;0.05;0.05;;;;;;;23.57;60.45;99268.59;4457135;32;20097;-94
2023/07/29 05:10:50;;;;;;;0.40;0.40;;;;;;;23.70;60.46;99277.09;4457217;32;20422;-93
2023/07/29 05:13:16;;;;;;;0.00;0.00;;;;;;;23.89;60.48;99284.97;4463674;32;20120;-93
2023/07/29 05:15:41;;;;;;;0.00;0.00;;;;;;;24.11;60.48;99291.75;4467507;32;20100;-91
2023/07/29 05:18:07;;;;;;;0.00;0.00;;;;;;;24.14;60.49;99283.53;4451356;32;24264;-91
2023/07/29 05:20:32;;;;;;;0.00;0.00;;;;;;;24.33;60.50;99284.44;4455846;32;20145;-90
2023/07/29 05:22:58;;;;;;;0.20;0.20;;;;;;;24.56;60.50;99285.69;4451424;32;20105;-91
2023/07/29 05:25:23;;;;;;;0.05;0.05;;;;;;;24.66;60.51;99280.31;4455051;32;27255;-91
2023/07/29 05:27:48;;;;;;;0.00;0.00;;;;;;;24.90;60.52;99283.25;4451495;32;20140;-91
2023/07/29 05:30:14;;;;;;;0.08;0.08;;;;;;;24.93;60.53;99277.59;4480536;32;27206;-91
2023/07/29 05:32:39;;;;;;;0.13;0.13;;;;;;;25.26;60.54;99289.41;4443182;32;20428;-93
2023/07/29 05:35:05;;;;;;;0.00;0.00;;;;;;;25.48;60.55;99296.09;4471923;32;20105;-91
2023/07/29 05:37:31;;;;;;;2.70;0.35;;;;;;;25.74;60.56;99296.12;4470753;32;20096;-92
2023/07/29 05:39:56;;;;;;;0.00;0.00;;;;;;;25.74;60.57;99298.78;4470315;32;21078;-91
2023/07/29 05:42:21;;;;;;;0.10;0.10;;;;;;;25.80;60.57;99308.03;4463736;32;20164;-91
2023/07/29 05:44:47;;;;;;;0.00;0.00;;;;;;;25.88;60.57;99308.06;4454803;32;28382;-91
2023/07/29 05:47:12;;;;;;;0.00;0.00;;;;;;;26.10;60.59;99307.53;4468738;32;20156;-92
2023/07/29 05:49:38;;;;;;;0.00;0.00;;;;;;;26.13;60.58;99306.38;4455355;32;20109;-92
2023/07/29 05:52:03;;;;;;;0.20;0.20;;;;;;;26.18;60.59;99307.56;4455561;32;20608;-91
2023/07/29 05:54:29;;;;;;;0.88;0.25;;;;;;;26.44;60.60;99296.84;4458033;32;20096;-91
2023/07/29 05:56:54;;;;;;;0.17;0.17;;;;;;;26.55;60.60;99301.91;4470697;32;23968;-91
2023/07/29 05:59:20;;;;;;;0.10;0.10;;;;;;;26.16;60.58;99314.03;4481592;32;20153;-92
2023/07/29 06:01:45;;;;;;;0.28;0.28;;;;;;;26.33;60.60;99315.81;4468520;32;20160;-91
2023/07/29 06:04:10;;;;;;;0.62;0.62;;;;;;;26.35;60.60;99318.34;4470192;32;20449;-90
2023/07/29 06:06:36;;;;;;;0.22;0.08;;;;;;;26.41;60.59;99331.88;4484103;31;20254;-91
2023/07/29 06:09:01;;;;;;;0.55;0.43;;;;;;;26.57;60.61;99334.62;4473734;31;20090;-92
2023/07/29 06:11:27;;;;;;;0.30;0.30;;;;;;;26.39;60.60;99325.03;4470298;32;24368;-91
2023/07/29 06:13:52;;;;;;;0.00;0.00;;;;;;;26.30;60.59;99335.63;4469105;32;20151;-92
2023/07/29 06:16:17;;;;;;;2.28;0.85;;;;;;;26.00;60.58;99344.97;4475984;32;20140;-91
2023/07/29 06:18:43;;;;;;;0.00;0.00;;;;;;;25.93;60.57;99343.09;4471137;32;20108;-91
2023/07/29 06:21:11;;;;;;;0.00;0.00;;;;;;;26.08;60.58;99332.69;4455400;32;20151;-91
2023/07/29 06:23:36;;;;;;;0.80;0.35;;;;;;;25.99;60.58;99337.94;4443548;32;20123;-92
2023/07/29 06:26:02;;;;;;;0.00;0.00;;;;;;;26.15;60.58;99334.56;4450080;32;20100;-91
2023/07/29 06:28:27;;;;;;;0.17;0.17;;;;;;;26.25;60.60;99340.59;4457854;32;20168;-92
2023/07/29 06:30:53;;;;;;;0.17;0.17;;;;;;;26.17;60.58;99342.38;4470941;32;20108;-92
2023/07/29 06:33:18;;;;;;;0.40;0.40;;;;;;;26.35;60.60;99351.19;4470843;32;20434;-90
2023/07/29 06:35:44;;;;;;;0.10;0.10;;;;;;;26.39;60.60;99347.22;4476110;31;20092;-90
2023/07/29 06:38:09;;;;;;;0.00;0.00;;;;;;;26.41;60.61;99344.38;4457500;32;20145;-91
2023/07/29 06:40:35;;;;;;;0.13;0.13;;;;;;;26.42;60.60;99341.53;4476410;32;20450;-91
2023/07/29 06:43:00;;;;;;;0.75;0.43;;;;;;;26.60;60.61;99350.31;4457098;32;20132;-90
2023/07/29 06:45:26;;;;;;;0.00;0.00;;;;;;;26.61;60.61;99340.47;4484024;32;20121;-91
2023/07/29 06:47:51;;;;;;;3.60;0.52;;;;;;;26.72;60.62;99342.81;4470933;32;20096;-91
2023/07/29 06:50:17;;;;;;;0.20;0.20;;;;;;;26.68;60.62;99352.16;4483254;32;20104;-91
2023/07/29 06:52:42;;;;;;;0.00;0.00;;;;;;;26.69;60.62;99345.81;4470836;32;20127;-91
2023/07/29 06:55:08;;;;;;;0.08;0.08;;;;;;;26.71;60.61;99351.00;4455302;32;20096;-90
2023/07/29 06:57:33;;;;;;;0.20;0.10;;;;;;;26.95;60.63;99336.88;4465767;32;20368;-91
2023/07/29 06:59:59;;;;;;;0.10;0.10;;;;;;;26.94;60.62;99330.69;4471007;32;20377;-91
2023/07/29 07:02:24;;;;;;;0.28;0.28;;;;;;;27.15;60.64;99328.44;4470044;32;20457;-90
2023/07/29 07:04:50;;;;;;;0.75;0.52;;;;;;;27.04;60.63;99328.75;4483630;32;20111;-92
2023/07/29 07:07:16;;;;;;;1.70;0.20;;;;;;;27.30;60.65;99333.97;4471060;32;20108;-92
2023/07/29 07:09:41;;;;;;;1.23;0.30;;;;;;;27.46;60.66;99325.13;4471007;32;20180;-92
2023/07/29 07:12:07;;;;;;;0.10;0.10;;;;;;;27.41;60.65;99330.13;4470393;32;20108;-90
2023/07/29 07:14:33;;;;;;;0.55;0.20;;;;;;;27.48;60.66;99325.78;4478411;31;20170;-90
2023/07/29 07:16:58;;;;;;;0.10;0.10;;;;;;;27.54;60.66;99327.78;4470279;32;20466;-90
2023/07/29 07:19:29;;;;;;;0.50;0.50;;;;;;;27.81;60.67;99332.81;4470565;32;20101;-91
2023/07/29 07:21:55;;;;;;;0.00;0.00;;;;;;;28.02;60.68;99326.09;4455657;32;20429;-91
2023/07/29 07:24:20;;;;;;;0.00;0.00;;;;;;;28.21;60.69;99324.88;4441646;32;20154;-91
2023/07/29 07:26:45;;;;;;;0.22;0.22;;;;;;;28.20;60.69;99324.03;4467108;32;20130;-91
2023/07/29 07:29:11;;;;;;;0.15;0.15;;;;;;;28.39;60.70;99326.34;4476580;32;20172;-90
2023/07/29 07:31:36;;;;;;;0.20;0.17;;;;;;;28.17;60.69;99329.72;4466700;32;20159;-91
2023/07/29 07:34:04;;;;;;;0.32;0.32;;;;;;;28.38;60.69;99323.81;4483500;32;20088;-91
2023/07/29 07:36:30;;;;;;;0.17;0.13;;;;;;;28.44;60.70;99331.19;4481390;32;20453;-90
2023/07/29 07:39:02;;;;;;;0.00;0.00;;;;;;;28.26;60.70;99322.53;4455095;32;20105;-93
2023/07/29 07:41:40;;;;;;;0.00;0.00;;;;;;;28.22;60.70;99322.03;4442284;32;20188;-91
2023/07/29 07:44:05;;;;;;;0.00;0.00;;;;;;;28.21;60.69;99322.19;4442187;32;20089;-91
2023/07/29 07:46:30;;;;;;;0.10;0.10;;;;;;;28.27;60.70;99317.00;4469121;32;20132;-90
2023/07/29 07:48:56;;;;;;;0.57;0.57;;;;;;;28.34;60.70;99317.13;4484378;31;20118;-91
2023/07/29 07:51:21;;;;;;;0.30;0.20;;;;;;;28.60;60.71;99322.22;4446669;32;20097;-91
2023/07/29 07:53:47;;;;;;;0.00;0.00;;;;;;;28.57;60.72;99311.84;4473755;32;20148;-91
2023/07/29 07:56:12;;;;;;;0.00;0.00;;;;;;;28.52;60.71;99311.56;4465514;32;20382;-90
2023/07/29 07:58:38;;;;;;;0.22;0.22;;;;;;;28.72;60.73;99312.78;4476884;32;20210;-90
2023/07/29 08:01:04;;;;;;;0.00;0.00;;;;;;;28.72;60.72;99308.28;4467401;32;20127;-91
2023/07/29 08:03:30;;;;;;;0.10;0.10;;;;;;;28.47;60.71;99312.09;4448375;32;20240;-92
2023/07/29 08:05:55;;;;;;;0.50;0.50;;;;;;;28.70;60.71;99309.47;4469035;32;20094;-92
2023/07/29 08:08:21;;;;;;;0.30;0.30;;;;;;;28.81;60.73;99306.38;4454343;32;20450;-91
2023/07/29 08:10:46;;;;;;;0.00;0.00;;;;;;;28.93;60.73;99305.00;4477504;32;20423;-92
2023/07/29 08:13:11;;;;;;;0.20;0.20;;;;;;;28.90;60.72;99304.53;4455747;32;20122;-90
2023/07/29 08:15:37;;;;;;;0.00;0.00;;;;;;;28.81;60.73;99303.69;4457270;32;20148;-90
2023/07/29 08:18:02;;;;;;;0.00;0.00;;;;;;;29.07;60.74;99302.53;4456331;32;20112;-91
2023/07/29 08:20:28;;;;;;;0.00;0.00;;;;;;;29.07;60.74;99302.53;4453680;32;20105;-90
2023/07/29 08:22:53;;;;;;;0.00;0.00;;;;;;;29.17;60.74;99303.16;4461844;32;20148;-91
2023/07/29 08:25:18;;;;;;;0.15;0.15;;;;;;;29.33;60.76;99300.31;4482350;32;20154;-91
2023/07/29 08:27:44;;;;;;;0.32;0.28;;;;;;;29.34;60.76;99304.72;4469258;32;20130;-90
2023/07/29 08:30:10;;;;;;;0.40;0.40;;;;;;;29.50;60.77;99295.69;4469345;32;20097;-90
2023/07/29 08:32:35;;;;;;;0.00;0.00;;;;;;;29.61;60.77;99295.28;4483820;31;20385;-90
2023/07/29 08:35:01;;;;;;;0.00;0.00;;;;;;;29.68;60.78;99298.06;4472941;31;20140;-90
2023/07/29 08:37:27;;;;;;;0.17;0.17;;;;;;;29.72;60.78;99294.81;4469153;32;20135;-90
2023/07/29 08:39:53;;;;;;;0.03;0.03;;;;;;;30.07;60.79;99292.47;4466340;32;20131;-90
2023/07/29 08:42:19;;;;;;;0.00;0.00;;;;;;;30.32;60.80;99296.53;4449017;32;20100;-89
2023/07/29 08:44:44;;;;;;;0.10;0.10;;;;;;;30.31;60.80;99296.72;4482300;32;20433;-90
2023/07/29 08:47:10;;;;;;;0.03;0.03;;;;;;;30.61;60.82;99284.94;4469144;32;20491;-89
2023/07/29 08:49:36;;;;;;;0.05;0.05;;;;;;;30.77;60.83;99281.19;4468897;32;20104;-89
2023/07/29 08:52:01;;;;;;;0.00;0.00;;;;;;;30.97;60.83;99286.75;4474728;32;20080;-87
2023/07/29 08:54:27;;;;;;;0.00;0.00;;;;;;;30.98;60.83;99283.03;4468546;32;20142;-86
2023/07/29 08:56:52;;;;;;;0.28;0.28;;;;;;;31.13;60.84;99281.12;4474550;32;20194;-86
2023/07/29 08:59:18;;;;;;;0.00;0.00;;;;;;;31.48;60.85;99275.91;4480282;32;20437;-84
2023/07/29 09:01:43;;;;;;;0.10;0.10;;;;;;;31.76;60.88;99268.69;4474694;32;20114;-85
2023/07/29 09:04:09;;;;;;;0.00;0.00;;;;;;;31.90;60.88;99277.66;4467951;32;26898;-85
2023/07/29 09:06:35;;;;;;;0.00;0.00;;;;;;;31.91;60.88;99274.75;4474500;32;20465;-86
2023/07/29 09:09:00;;;;;;;0.00;0.00;;;;;;;31.96;60.88;99274.19;4479146;32;20113;-85
2023/07/29 09:11:26;;;;;;;0.00;0.00;;;;;;;32.03;60.88;99267.81;4474645;32;20126;-86
2023/07/29 09:13:52;;;;;;;0.65;0.45;;;;;;;32.28;60.90;99267.34;4469216;32;21658;-86
2023/07/29 09:16:18;;;;;;;0.00;0.00;;;;;;;32.35;60.91;99260.94;4471385;32;20100;-85
2023/07/29 09:18:43;;;;;;;0.05;0.00;;;;;;;32.42;60.90;99276.31;4482855;31;31176;-86
2023/07/29 09:21:08;;;;;;;0.10;0.10;;;;;;;32.55;60.92;99266.41;4469423;32;27163;-87
2023/07/29 09:23:41;;;;;;;0.20;0.20;;;;;;;32.53;60.92;99262.25;4470202;32;20101;-86
2023/07/29 09:26:06;;;;;;;0.35;0.30;;;;;;;32.40;60.91;99263.03;4471309;32;20112;-86
2023/07/29 09:28:36;;;;;;;0.08;0.08;;;;;;;32.39;60.91;99255.97;4474274;31;20177;-85
2023/07/29 09:31:01;;;;;;;0.13;0.13;;;;;;;32.21;60.91;99250.28;4476880;31;20148;-85
2023/07/29 09:33:27;;;;;;;0.00;0.00;;;;;;;32.38;60.92;99251.63;4480295;32;20089;-87
2023/07/29 09:35:53;;;;;;;0.73;0.55;;;;;;;32.53;60.92;99249.59;4468570;32;20104;-86
2023/07/29 09:38:18;;;;;;;0.10;0.10;;;;;;;32.72;60.92;99242.62;4467850;32;20093;-85
2023/07/29 09:40:47;;;;;;;0.00;0.00;;;;;;;32.79;60.93;99248.00;4467612;32;27484;-87
2023/07/29 09:43:12;;;;;;;0.40;0.40;;;;;;;32.61;60.92;99254.81;4478869;32;20150;-86
2023/07/29 09:45:37;;;;;;;0.00;0.00;;;;;;;32.17;60.90;99246.31;4477122;32;20163;-87
2023/07/29 09:48:04;;;;;;;0.00;0.00;;;;;;;32.18;60.90;99247.97;4484222;32;20108;-86
2023/07/29 09:50:30;;;;;;;0.28;0.17;;;;;;;32.20;60.91;99243.25;4471310;32;20085;-87
2023/07/29 09:52:57;;;;;;;0.00;0.00;;;;;;;32.44;60.92;99245.44;4467137;32;20140;-87
2023/07/29 09:55:29;;;;;;;0.00;0.00;;;;;;;32.29;60.91;99247.44;4477474;32;20100;-87
2023/07/29 09:58:01;;;;;;;0.00;0.00;;;;;;;32.47;60.92;99239.66;4456633;32;20236;-86
2023/07/29 10:00:30;;;;;;;0.00;0.00;;;;;;;32.64;60.93;99249.00;4480136;32;20164;-85
2023/07/29 10:02:55;;;;;;;0.00;0.00;;;;;;;32.41;60.91;99236.91;4480159;31;20136;-87
2023/07/29 10:05:22;;;;;;;2.25;0.30;;;;;;;32.65;60.93;99234.53;4454944;32;20202;-87
2023/07/29 10:07:48;;;;;;;0.00;0.00;;;;;;;32.73;60.93;99232.66;4455292;32;20096;-86
2023/07/29 10:10:13;;;;;;;0.08;0.08;;;;;;;32.80;60.93;99228.12;4468850;32;20504;-88
2023/07/29 10:12:39;;;;;;;0.10;0.10;;;;;;;32.68;60.93;99225.19;4454901;32;20316;-87
2023/07/29 10:15:05;;;;;;;1.35;0.40;;;;;;;32.83;60.93;99230.41;4465154;32;20140;-88
2023/07/29 10:17:34;;;;;;;0.17;0.17;;;;;;;33.16;60.95;99220.50;4470706;32;20164;-88
2023/07/29 10:19:59;;;;;;;0.00;0.00;;;;;;;33.24;60.96;99217.59;4455334;32;20156;-85
2023/07/29 10:22:28;;;;;;;0.00;0.00;;;;;;;33.43;60.97;99223.22;4467616;32;24474;-86
2023/07/29 10:24:54;;;;;;;0.05;0.05;;;;;;;33.47;60.96;99224.47;4465916;32;20165;-86
2023/07/29 10:27:19;;;;;;;0.35;0.20;;;;;;;33.82;60.98;99212.31;4455099;32;20198;-86
2023/07/29 10:29:45;;;;;;;0.25;0.17;;;;;;;34.05;61.00;99219.12;4465558;32;20152;-86
2023/07/29 10:32:11;;;;;;;0.00;0.00;;;;;;;34.17;61.00;99220.16;4464922;32;20430;-87
2023/07/29 10:34:36;;;;;;;0.65;0.40;;;;;;;34.36;61.00;99213.03;4479585;32;20157;-86
2023/07/29 10:37:02;;;;;;;0.08;0.08;;;;;;;34.68;61.03;99212.00;4470718;32;20130;-86
2023/07/29 10:39:27;;;;;;;0.30;0.30;;;;;;;34.70;61.03;99207.19;4470520;32;20141;-87
2023/07/29 10:41:56;;;;;;;0.03;0.00;;;;;;;34.37;61.02;99215.53;4468254;32;20085;-87
2023/07/29 10:44:41;;;;;;;0.00;0.00;;;;;;;34.28;61.00;99216.75;4479240;32;20081;-87
2023/07/29 10:47:23;;;;;;;0.00;0.00;;;;;;;34.18;61.00;99219.09;4477196;31;20512;-87
2023/07/29 10:49:56;;;;;;;0.43;0.20;;;;;;;33.95;61.00;99216.91;4460284;32;20536;-87
2023/07/29 10:52:51;;;;;;;0.10;0.10;;;;;;;33.58;60.97;99216.53;4474648;31;20080;-87
2023/07/29 10:55:27;;;;;;;0.75;0.62;;;;;;;33.72;60.97;99211.13;4468903;32;22301;-86
2023/07/29 10:58:06;;;;;;;0.00;0.00;;;;;;;33.54;60.98;99217.19;4479712;32;20396;-86
2023/07/29 11:00:32;;;;;;;0.00;0.00;;;;;;;33.35;60.96;99218.84;4469233;32;20197;-87
2023/07/29 11:03:16;;;;;;;0.00;0.00;;;;;;;33.29;60.96;99216.97;4454631;32;20112;-86
2023/07/29 11:05:44;;;;;;;0.00;0.00;;;;;;;33.20;60.96;99219.06;4465186;32;20109;-87
2023/07/29 11:08:28;;;;;;;0.00;0.00;;;;;;;33.45;60.96;99216.56;4462867;32;20105;-87
2023/07/29 11:11:00;;;;;;;0.00;0.00;;;;;;;33.82;60.98;99206.94;4466897;32;20092;-88
2023/07/29 11:13:29;;;;;;;0.00;0.00;;;;;;;33.98;61.00;99218.34;4467622;32;20096;-86
2023/07/29 11:15:56;;;;;;;0.00;0.00;;;;;;;34.05;61.00;99211.03;4469113;32;20397;-88
2023/07/29 11:18:21;;;;;;;0.35;0.35;;;;;;;34.15;61.00;99216.84;4465167;32;20141;-87
2023/07/29 11:20:47;;;;;;;0.00;0.00;;;;;;;34.09;61.00;99220.41;4473025;31;20088;-87
2023/07/29 11:23:13;;;;;;;0.00;0.00;;;;;;;34.04;61.00;99209.37;4473188;32;20093;-85
2023/07/29 11:25:39;;;;;;;0.00;0.00;;;;;;;33.79;60.99;99215.47;4484246;32;20100;-86
2023/07/29 11:28:04;;;;;;;0.45;0.45;;;;;;;33.74;60.99;99209.03;4484770;31;20149;-86
2023/07/29 11:30:30;;;;;;;0.43;0.40;;;;;;;33.78;60.98;99212.97;4469214;31;20158;-86